Time;durP1;ratioP1;P1;durP2;ratioP2;P2;SDS_P1;SDS_P2;PMS_P1;PMS_P2;Temp;Humidity;BMP_temperature;BMP_pressure;BME280_temperature;BME280_humidity;BME280_pressure;Samples;Min_cycle;Max_cycle;Signal;HPM_P1;HPM_P2
2022/08/26 00:01:13;;;;;;;104.60;84.03;;;;;;;;;;5050995;28;20107;-61
2022/08/26 00:03:39;;;;;;;108.17;86.67;;;;;;;;;;5050989;28;20045;-61
2022/08/26 00:06:06;;;;;;;115.23;88.57;;;;;;;;;;5050795;28;20044;-61
2022/08/26 00:08:32;;;;;;;107.63;84.53;;;;;;;;;;5050297;28;20041;-61
2022/08/26 00:10:58;;;;;;;120.83;89.33;;;;;;;;;;5050974;28;20119;-61
2022/08/26 00:13:25;;;;;;;110.37;85.63;;;;;;;;;;5050812;28;20110;-61
2022/08/26 00:15:51;;;;;;;119.33;89.57;;;;;;;;;;5051037;28;20090;-61
2022/08/26 00:18:17;;;;;;;120.93;86.53;;;;;;;;;;5049538;28;20049;-61
2022/08/26 00:20:44;;;;;;;124.10;88.73;;;;;;;;;;5050821;28;20068;-61
2022/08/26 00:23:10;;;;;;;113.03;87.50;;;;;;;;;;5050412;28;20494;-61
2022/08/26 00:25:36;;;;;;;113.33;88.07;;;;;;;;;;5050178;28;20049;-61
2022/08/26 00:28:03;;;;;;;116.83;87.50;;;;;;;;;;5050585;28;20052;-61
2022/08/26 00:30:30;;;;;;;121.33;85.20;;;;;;;;;;5050115;28;20831;-61
2022/08/26 00:32:56;;;;;;;114.23;84.30;;;;;;;;;;5050553;28;20099;-61
2022/08/26 00:35:22;;;;;;;115.20;82.37;;;;;;;;;;5050558;28;20045;-62
2022/08/26 00:37:50;;;;;;;112.30;82.03;;;;;;;;;;5050259;28;20041;-61
2022/08/26 00:40:18;;;;;;;118.27;82.83;;;;;;;;;;5049562;28;20049;-61
2022/08/26 00:42:45;;;;;;;111.47;81.20;;;;;;;;;;5049977;28;20123;-61
2022/08/26 00:45:11;;;;;;;112.07;79.70;;;;;;;;;;5050023;28;20048;-61
2022/08/26 00:47:45;;;;;;;99.67;76.73;;;;;;;;;;5050111;28;20072;-61
2022/08/26 00:50:13;;;;;;;99.53;72.10;;;;;;;;;;5050074;28;20128;-61
2022/08/26 00:52:40;;;;;;;81.83;61.10;;;;;;;;;;5049684;28;20418;-61
2022/08/26 00:55:11;;;;;;;85.77;67.33;;;;;;;;;;5049777;28;20044;-61
2022/08/26 00:57:37;;;;;;;91.50;65.53;;;;;;;;;;5049977;28;20048;-61
2022/08/26 01:00:06;;;;;;;82.17;62.63;;;;;;;;;;5049618;28;20063;-60
2022/08/26 01:02:33;;;;;;;81.03;60.97;;;;;;;;;;5050449;28;20056;-61
2022/08/26 01:05:01;;;;;;;85.50;56.93;;;;;;;;;;5049626;28;20052;-60
2022/08/26 01:07:29;;;;;;;74.20;58.23;;;;;;;;;;5050105;28;20099;-61
2022/08/26 01:09:55;;;;;;;68.20;51.37;;;;;;;;;;5050297;28;20557;-61
2022/08/26 01:12:22;;;;;;;66.97;52.53;;;;;;;;;;5031702;28;20045;-60
2022/08/26 01:14:48;;;;;;;67.07;48.83;;;;;;;;;;5049647;28;20211;-61
2022/08/26 01:17:14;;;;;;;65.63;51.30;;;;;;;;;;5049851;28;20506;-61
2022/08/26 01:19:45;;;;;;;74.73;52.77;;;;;;;;;;5049495;28;20053;-61
2022/08/26 01:22:19;;;;;;;66.43;48.23;;;;;;;;;;5049231;28;20056;-61
2022/08/26 01:24:46;;;;;;;57.23;44.27;;;;;;;;;;5049868;28;20106;-61
2022/08/26 01:27:16;;;;;;;59.77;46.50;;;;;;;;;;5049068;28;20052;-60
2022/08/26 01:29:44;;;;;;;58.00;42.17;;;;;;;;;;5049255;28;20056;-60
2022/08/26 01:32:11;;;;;;;58.60;43.13;;;;;;;;;;5049065;28;20514;-60
2022/08/26 01:34:38;;;;;;;58.73;45.47;;;;;;;;;;5049794;28;20048;-60
2022/08/26 01:37:09;;;;;;;57.70;44.80;;;;;;;;;;5048344;28;20450;-61
2022/08/26 01:39:36;;;;;;;51.67;42.10;;;;;;;;;;5049513;28;20091;-60
2022/08/26 01:42:02;;;;;;;60.20;43.00;;;;;;;;;;5049218;28;20048;-60
2022/08/26 01:44:30;;;;;;;54.40;40.37;;;;;;;;;;5048821;28;20521;-61
2022/08/26 01:46:56;;;;;;;52.10;36.70;;;;;;;;;;5049122;28;20041;-60
2022/08/26 01:49:23;;;;;;;49.80;38.77;;;;;;;;;;5048642;28;20064;-61
2022/08/26 01:51:50;;;;;;;51.23;37.27;;;;;;;;;;5048978;28;20049;-60
2022/08/26 01:54:17;;;;;;;48.73;36.30;;;;;;;;;;5048872;28;20414;-60
2022/08/26 01:56:43;;;;;;;44.83;33.50;;;;;;;;;;5049128;28;20049;-60
2022/08/26 01:59:10;;;;;;;50.53;34.50;;;;;;;;;;5048985;28;20059;-60
2022/08/26 02:01:36;;;;;;;46.50;35.27;;;;;;;;;;5048813;28;20108;-60
2022/08/26 02:04:09;;;;;;;43.03;33.13;;;;;;;;;;5048525;28;20044;-60
2022/08/26 02:06:36;;;;;;;42.30;31.63;;;;;;;;;;5048422;28;20058;-60
2022/08/26 02:09:04;;;;;;;47.70;32.10;;;;;;;;;;5048145;28;20048;-60
2022/08/26 02:11:30;;;;;;;43.73;32.10;;;;;;;;;;5047881;28;20087;-60
2022/08/26 02:14:00;;;;;;;39.40;29.60;;;;;;;;;;5048635;28;20048;-61
2022/08/26 02:16:27;;;;;;;46.53;31.13;;;;;;;;;;5048564;28;20041;-60
2022/08/26 02:18:54;;;;;;;40.90;30.03;;;;;;;;;;5048688;28;20037;-60
2022/08/26 02:21:21;;;;;;;37.77;28.40;;;;;;;;;;5047132;28;20094;-60
2022/08/26 02:23:47;;;;;;;36.90;27.17;;;;;;;;;;5048518;28;20090;-60
2022/08/26 02:26:16;;;;;;;35.77;25.67;;;;;;;;;;5046883;28;20045;-60
2022/08/26 02:28:53;;;;;;;38.43;25.97;;;;;;;;;;5048404;28;20045;-60
2022/08/26 02:31:19;;;;;;;36.13;25.27;;;;;;;;;;5047970;28;20103;-60
2022/08/26 02:33:45;;;;;;;38.33;27.07;;;;;;;;;;5048201;28;20469;-60
2022/08/26 02:36:12;;;;;;;30.30;23.70;;;;;;;;;;5048167;28;20418;-60
2022/08/26 02:38:38;;;;;;;35.27;22.87;;;;;;;;;;5046608;28;20095;-60
2022/08/26 02:41:04;;;;;;;29.93;21.63;;;;;;;;;;5048451;28;20045;-60
2022/08/26 02:43:30;;;;;;;31.83;20.70;;;;;;;;;;5047472;28;20069;-60
2022/08/26 02:45:56;;;;;;;30.97;21.03;;;;;;;;;;5048250;28;20136;-60
2022/08/26 02:48:22;;;;;;;24.73;19.23;;;;;;;;;;5047796;28;20053;-61
2022/08/26 02:50:48;;;;;;;35.60;17.87;;;;;;;;;;5047152;28;20052;-60
2022/08/26 02:53:15;;;;;;;28.03;18.33;;;;;;;;;;5048267;28;20048;-60
2022/08/26 02:55:41;;;;;;;31.23;18.23;;;;;;;;;;5047482;28;20049;-60
2022/08/26 02:58:08;;;;;;;25.50;15.90;;;;;;;;;;5047791;28;20442;-60
2022/08/26 03:00:38;;;;;;;29.97;17.10;;;;;;;;;;5047431;28;20519;-60
2022/08/26 03:03:04;;;;;;;21.13;15.37;;;;;;;;;;5047767;28;20049;-60
2022/08/26 03:05:30;;;;;;;26.20;16.70;;;;;;;;;;5047751;28;20048;-60
2022/08/26 03:07:56;;;;;;;24.60;16.00;;;;;;;;;;5047695;28;20547;-60
2022/08/26 03:10:22;;;;;;;26.13;16.17;;;;;;;;;;5047282;28;20045;-60
2022/08/26 03:12:48;;;;;;;25.47;15.23;;;;;;;;;;5048061;28;20056;-60
2022/08/26 03:15:15;;;;;;;26.50;15.70;;;;;;;;;;5047553;28;20140;-60
2022/08/26 03:17:42;;;;;;;30.97;15.93;;;;;;;;;;5045803;28;20084;-60
2022/08/26 03:20:08;;;;;;;23.83;14.73;;;;;;;;;;5050294;28;20052;-60
2022/08/26 03:22:34;;;;;;;24.93;15.17;;;;;;;;;;5051799;28;20051;-60
2022/08/26 03:25:03;;;;;;;26.73;14.23;;;;;;;;;;5051700;28;20086;-60
2022/08/26 03:27:29;;;;;;;25.23;14.73;;;;;;;;;;5051457;28;20045;-61
2022/08/26 03:32:40;;;;;;;29.63;15.90;;;;;;;;;;5051128;28;20053;-60
2022/08/26 03:35:07;;;;;;;22.63;15.33;;;;;;;;;;5051798;28;20041;-60
2022/08/26 03:37:33;;;;;;;27.57;14.27;;;;;;;;;;5051502;28;20045;-60
2022/08/26 03:39:59;;;;;;;27.33;15.00;;;;;;;;;;5051477;28;20111;-60
2022/08/26 03:42:26;;;;;;;22.50;14.93;;;;;;;;;;5051338;28;20056;-60
2022/08/26 03:44:52;;;;;;;24.90;15.37;;;;;;;;;;5049881;28;20052;-60
2022/08/26 03:47:18;;;;;;;27.53;14.33;;;;;;;;;;5051492;28;20064;-60
2022/08/26 03:49:44;;;;;;;22.87;14.70;;;;;;;;;;5051432;28;20044;-61
2022/08/26 03:52:10;;;;;;;26.20;14.07;;;;;;;;;;5050790;28;20052;-60
2022/08/26 03:54:37;;;;;;;24.67;13.63;;;;;;;;;;5051301;28;20053;-60
2022/08/26 03:57:03;;;;;;;22.40;14.90;;;;;;;;;;5050412;28;20051;-60
2022/08/26 03:59:29;;;;;;;23.47;13.47;;;;;;;;;;5051081;28;20076;-60
2022/08/26 04:01:55;;;;;;;24.80;14.00;;;;;;;;;;5051298;28;20082;-60
2022/08/26 04:04:21;;;;;;;20.60;12.97;;;;;;;;;;5050743;28;20056;-60
2022/08/26 04:06:47;;;;;;;21.93;12.87;;;;;;;;;;5050934;28;20045;-60
2022/08/26 04:09:17;;;;;;;22.50;12.00;;;;;;;;;;5050599;28;20052;-60
2022/08/26 04:11:44;;;;;;;22.83;14.40;;;;;;;;;;5050296;28;20044;-60
2022/08/26 04:14:14;;;;;;;23.47;13.40;;;;;;;;;;5050489;28;20045;-60
2022/08/26 04:16:41;;;;;;;19.10;13.03;;;;;;;;;;5050246;28;20048;-60
2022/08/26 04:19:07;;;;;;;25.17;13.13;;;;;;;;;;5050943;28;20084;-60
2022/08/26 04:21:34;;;;;;;18.53;12.27;;;;;;;;;;5050060;28;20095;-60
2022/08/26 04:24:00;;;;;;;18.20;12.00;;;;;;;;;;5050506;28;20571;-60
2022/08/26 04:26:26;;;;;;;18.77;11.67;;;;;;;;;;5050550;28;20127;-60
2022/08/26 04:28:53;;;;;;;19.53;11.10;;;;;;;;;;5050624;28;20049;-60
2022/08/26 04:31:19;;;;;;;21.27;10.60;;;;;;;;;;5049440;28;20470;-60
2022/08/26 04:33:46;;;;;;;18.83;11.00;;;;;;;;;;5050525;28;20136;-60
2022/08/26 04:36:12;;;;;;;23.70;10.87;;;;;;;;;;5050179;28;20503;-60
2022/08/26 04:38:38;;;;;;;18.80;10.07;;;;;;;;;;5050259;28;20411;-60
2022/08/26 04:41:07;;;;;;;18.33;10.40;;;;;;;;;;5049873;28;20410;-60
2022/08/26 04:43:33;;;;;;;16.20;10.40;;;;;;;;;;5049727;28;20071;-60
2022/08/26 04:46:00;;;;;;;15.03;9.73;;;;;;;;;;5050462;28;20098;-60
2022/08/26 04:48:28;;;;;;;13.80;9.60;;;;;;;;;;5048876;28;20620;-60
2022/08/26 04:50:54;;;;;;;25.83;10.63;;;;;;;;;;5049453;28;20087;-61
2022/08/26 04:53:21;;;;;;;18.30;9.40;;;;;;;;;;5049523;28;20060;-60
2022/08/26 04:55:47;;;;;;;18.53;8.40;;;;;;;;;;5049378;28;20045;-60
2022/08/26 04:58:16;;;;;;;15.13;8.70;;;;;;;;;;5049819;28;20045;-60
2022/08/26 05:00:43;;;;;;;11.60;7.33;;;;;;;;;;5049825;28;20036;-60
2022/08/26 05:03:09;;;;;;;16.70;7.60;;;;;;;;;;5050028;28;20098;-61
2022/08/26 05:05:37;;;;;;;19.37;8.47;;;;;;;;;;5049520;28;20041;-60
2022/08/26 05:08:03;;;;;;;17.67;7.90;;;;;;;;;;5049089;28;20047;-60
2022/08/26 05:10:29;;;;;;;18.27;7.63;;;;;;;;;;5049648;28;20045;-60
2022/08/26 05:12:58;;;;;;;10.97;7.50;;;;;;;;;;5049737;28;20045;-60
2022/08/26 05:15:25;;;;;;;10.83;6.73;;;;;;;;;;5049272;28;20092;-60
2022/08/26 05:17:51;;;;;;;13.77;6.87;;;;;;;;;;5048996;28;20091;-60
2022/08/26 05:20:17;;;;;;;17.50;7.83;;;;;;;;;;5049553;28;20109;-60
2022/08/26 05:22:43;;;;;;;17.60;7.37;;;;;;;;;;5049403;28;20048;-60
2022/08/26 05:25:09;;;;;;;15.67;6.90;;;;;;;;;;5049571;28;20044;-60
2022/08/26 05:27:35;;;;;;;19.30;7.37;;;;;;;;;;5049554;28;20037;-60
2022/08/26 05:30:01;;;;;;;14.57;6.77;;;;;;;;;;5048145;28;20549;-60
2022/08/26 05:32:27;;;;;;;17.63;6.53;;;;;;;;;;5049278;28;20465;-60
2022/08/26 05:34:56;;;;;;;16.20;6.87;;;;;;;;;;5049277;28;20045;-60
2022/08/26 05:37:22;;;;;;;16.07;7.40;;;;;;;;;;5048493;28;20659;-61
2022/08/26 05:39:49;;;;;;;15.67;6.77;;;;;;;;;;5048902;28;20063;-60
2022/08/26 05:42:15;;;;;;;19.27;7.23;;;;;;;;;;5048322;28;20091;-60
2022/08/26 05:44:41;;;;;;;14.30;6.80;;;;;;;;;;5048615;28;20045;-60
2022/08/26 05:47:07;;;;;;;13.20;6.63;;;;;;;;;;5049104;28;20049;-60
2022/08/26 05:49:33;;;;;;;15.53;6.73;;;;;;;;;;5048908;28;20184;-61
2022/08/26 05:51:59;;;;;;;13.33;6.40;;;;;;;;;;5048216;28;20079;-61
2022/08/26 05:54:25;;;;;;;18.57;7.73;;;;;;;;;;5048882;28;20528;-60
2022/08/26 05:56:51;;;;;;;17.93;6.90;;;;;;;;;;5048037;28;20466;-60
2022/08/26 05:59:18;;;;;;;13.03;6.33;;;;;;;;;;5048825;28;20045;-60
2022/08/26 06:01:44;;;;;;;11.67;5.27;;;;;;;;;;5048347;28;20118;-61
2022/08/26 06:04:10;;;;;;;16.23;5.30;;;;;;;;;;5048228;28;20503;-61
2022/08/26 06:06:40;;;;;;;13.83;5.27;;;;;;;;;;5048062;28;20040;-61
2022/08/26 06:09:06;;;;;;;14.10;5.37;;;;;;;;;;5048644;28;20525;-61
2022/08/26 06:11:33;;;;;;;14.60;4.90;;;;;;;;;;5047691;28;20102;-61
2022/08/26 06:14:00;;;;;;;15.70;4.80;;;;;;;;;;5048539;28;20095;-61
2022/08/26 06:16:27;;;;;;;14.80;4.20;;;;;;;;;;5048280;28;20044;-61
2022/08/26 06:18:53;;;;;;;18.37;5.33;;;;;;;;;;5048316;28;20067;-61
2022/08/26 06:21:21;;;;;;;14.80;4.30;;;;;;;;;;5047423;28;20087;-61
2022/08/26 06:26:34;;;;;;;18.70;4.97;;;;;;;;;;5048162;28;20400;-61
2022/08/26 06:29:00;;;;;;;11.33;4.10;;;;;;;;;;5047642;28;20065;-60
2022/08/26 06:31:27;;;;;;;12.50;4.07;;;;;;;;;;5047528;28;20060;-61
2022/08/26 06:33:53;;;;;;;14.90;3.90;;;;;;;;;;5048009;28;20097;-61
2022/08/26 06:36:24;;;;;;;9.73;3.43;;;;;;;;;;5048390;28;20501;-61
2022/08/26 06:38:50;;;;;;;13.47;4.37;;;;;;;;;;5047592;28;20145;-61
2022/08/26 06:41:19;;;;;;;13.43;4.60;;;;;;;;;;5047735;28;20138;-61
2022/08/26 06:43:46;;;;;;;14.47;4.57;;;;;;;;;;5047883;28;20056;-60
2022/08/26 06:46:17;;;;;;;9.70;3.77;;;;;;;;;;5047649;28;20091;-61
2022/08/26 06:48:44;;;;;;;16.63;3.80;;;;;;;;;;5047555;28;20084;-61
2022/08/26 06:51:15;;;;;;;14.80;3.97;;;;;;;;;;5047603;28;20045;-61
2022/08/26 06:53:41;;;;;;;16.40;4.40;;;;;;;;;;5047669;28;20513;-61
2022/08/26 06:56:09;;;;;;;11.33;4.07;;;;;;;;;;5047533;28;20395;-61
2022/08/26 06:58:36;;;;;;;9.73;3.47;;;;;;;;;;5047534;28;20093;-61
2022/08/26 07:01:02;;;;;;;9.37;3.27;;;;;;;;;;5047324;28;20052;-61
2022/08/26 07:03:28;;;;;;;9.43;3.07;;;;;;;;;;5048101;28;20060;-61
2022/08/26 07:06:00;;;;;;;9.23;3.93;;;;;;;;;;5047469;28;20411;-61
2022/08/26 07:08:26;;;;;;;11.63;3.93;;;;;;;;;;5047585;28;20043;-61
2022/08/26 07:10:52;;;;;;;12.23;3.80;;;;;;;;;;5047301;28;20045;-61
2022/08/26 07:13:20;;;;;;;14.67;3.30;;;;;;;;;;5047951;28;20546;-60
2022/08/26 07:15:46;;;;;;;15.73;3.73;;;;;;;;;;5047468;28;20110;-61
2022/08/26 07:18:12;;;;;;;17.73;3.90;;;;;;;;;;5047163;28;20048;-61
2022/08/26 07:20:39;;;;;;;13.00;3.53;;;;;;;;;;5047321;28;20060;-61
2022/08/26 07:23:06;;;;;;;11.13;3.67;;;;;;;;;;5047591;28;20052;-61
2022/08/26 07:25:32;;;;;;;12.17;3.77;;;;;;;;;;5047212;28;20041;-61
2022/08/26 07:27:58;;;;;;;10.70;3.40;;;;;;;;;;5047675;28;20499;-61
2022/08/26 07:30:24;;;;;;;14.87;3.37;;;;;;;;;;5046735;28;20143;-61
2022/08/26 07:32:50;;;;;;;11.83;4.07;;;;;;;;;;5046824;28;20056;-60
2022/08/26 07:35:16;;;;;;;15.70;4.10;;;;;;;;;;5047687;28;20096;-61
2022/08/26 07:37:42;;;;;;;14.90;3.47;;;;;;;;;;5046663;28;20045;-61
2022/08/26 07:40:09;;;;;;;12.33;4.20;;;;;;;;;;5046520;28;20045;-61
2022/08/26 07:42:35;;;;;;;11.77;3.37;;;;;;;;;;5046980;28;20041;-61
2022/08/26 07:45:01;;;;;;;11.83;3.50;;;;;;;;;;5047270;28;20045;-61
2022/08/26 07:47:27;;;;;;;12.33;3.00;;;;;;;;;;5047336;28;20048;-61
2022/08/26 07:49:54;;;;;;;11.07;3.17;;;;;;;;;;5047129;28;20388;-61
2022/08/26 07:52:20;;;;;;;12.77;3.47;;;;;;;;;;5046577;28;20045;-61
2022/08/26 07:54:46;;;;;;;11.70;3.67;;;;;;;;;;5046782;28;20044;-61
2022/08/26 07:57:12;;;;;;;14.60;3.30;;;;;;;;;;5047077;28;20052;-61
2022/08/26 07:59:38;;;;;;;8.53;3.03;;;;;;;;;;5047145;28;20049;-61
2022/08/26 08:02:04;;;;;;;14.53;3.10;;;;;;;;;;5047027;28;20056;-61
2022/08/26 08:04:30;;;;;;;10.20;3.57;;;;;;;;;;5047154;28;20091;-61
2022/08/26 08:06:56;;;;;;;15.17;3.73;;;;;;;;;;5050686;28;20049;-61
2022/08/26 08:09:23;;;;;;;11.20;2.97;;;;;;;;;;5050255;28;20056;-61
2022/08/26 08:11:50;;;;;;;11.53;3.20;;;;;;;;;;5050172;28;20049;-60
2022/08/26 08:14:17;;;;;;;12.17;3.13;;;;;;;;;;5050098;28;20052;-61
2022/08/26 08:16:43;;;;;;;18.27;3.80;;;;;;;;;;5050446;28;20049;-61
2022/08/26 08:19:09;;;;;;;13.93;2.97;;;;;;;;;;5050323;28;20053;-61
2022/08/26 08:21:35;;;;;;;11.43;3.13;;;;;;;;;;5050859;28;20048;-61
2022/08/26 08:24:01;;;;;;;13.43;2.97;;;;;;;;;;5049834;28;20068;-61
2022/08/26 08:26:27;;;;;;;8.93;2.17;;;;;;;;;;5050144;28;20045;-61
2022/08/26 08:28:54;;;;;;;10.03;2.43;;;;;;;;;;5050400;28;20048;-61
2022/08/26 08:31:21;;;;;;;9.10;2.40;;;;;;;;;;5050514;28;20497;-61
2022/08/26 08:33:47;;;;;;;6.53;2.50;;;;;;;;;;5050389;28;20052;-61
2022/08/26 08:36:15;;;;;;;6.00;2.70;;;;;;;;;;5050529;28;20049;-61
2022/08/26 08:38:41;;;;;;;9.33;2.27;;;;;;;;;;5049657;28;20139;-61
2022/08/26 08:41:17;;;;;;;10.77;2.37;;;;;;;;;;5049911;28;20525;-61
2022/08/26 08:43:45;;;;;;;5.60;1.60;;;;;;;;;;5049689;28;20099;-61
2022/08/26 08:46:13;;;;;;;10.20;2.60;;;;;;;;;;5050369;28;20047;-60
2022/08/26 08:48:42;;;;;;;8.93;2.40;;;;;;;;;;5049821;28;20087;-61
2022/08/26 08:51:21;;;;;;;8.50;3.23;;;;;;;;;;5049427;28;20049;-61
2022/08/26 08:53:48;;;;;;;10.70;1.90;;;;;;;;;;5048406;28;20188;-61
2022/08/26 08:56:29;;;;;;;9.13;2.10;;;;;;;;;;5050243;28;20103;-61
2022/08/26 08:59:13;;;;;;;10.03;2.43;;;;;;;;;;5050069;28;20055;-61
2022/08/26 09:01:51;;;;;;;8.80;2.60;;;;;;;;;;5050208;28;20071;-61
2022/08/26 09:04:17;;;;;;;12.67;2.53;;;;;;;;;;5049097;28;20044;-61
2022/08/26 09:06:45;;;;;;;10.40;1.80;;;;;;;;;;5049686;28;20041;-61
2022/08/26 09:09:16;;;;;;;8.73;2.00;;;;;;;;;;5049534;28;20503;-61
2022/08/26 09:11:42;;;;;;;12.03;2.00;;;;;;;;;;5049173;28;20179;-61
2022/08/26 09:14:08;;;;;;;9.30;2.20;;;;;;;;;;5049067;28;20041;-61
2022/08/26 09:16:42;;;;;;;8.30;2.03;;;;;;;;;;5048116;28;20041;-61
2022/08/26 09:19:27;;;;;;;7.93;2.10;;;;;;;;;;5049768;28;20407;-61
2022/08/26 09:21:57;;;;;;;7.93;1.70;;;;;;;;;;5049281;28;20048;-61
2022/08/26 09:24:23;;;;;;;13.33;2.10;;;;;;;;;;5048590;28;20048;-61
2022/08/26 09:26:51;;;;;;;7.77;1.67;;;;;;;;;;5049172;28;20045;-61
2022/08/26 09:29:20;;;;;;;10.87;2.43;;;;;;;;;;5049374;28;20068;-61
2022/08/26 09:31:46;;;;;;;10.77;2.13;;;;;;;;;;5049107;28;20049;-61
2022/08/26 09:34:14;;;;;;;9.20;2.37;;;;;;;;;;5049070;28;20045;-61
2022/08/26 09:36:45;;;;;;;10.17;1.70;;;;;;;;;;5048258;28;20600;-61
2022/08/26 09:39:32;;;;;;;7.57;1.60;;;;;;;;;;5048794;28;20411;-61
2022/08/26 09:42:21;;;;;;;7.73;1.67;;;;;;;;;;5048590;28;20570;-61
2022/08/26 09:45:09;;;;;;;7.40;2.00;;;;;;;;;;5048690;28;20045;-61
2022/08/26 09:47:47;;;;;;;7.13;1.30;;;;;;;;;;5048819;28;20047;-61
2022/08/26 09:50:25;;;;;;;9.13;2.03;;;;;;;;;;5048417;28;20052;-61
2022/08/26 09:53:06;;;;;;;13.55;1.85;;;;;;;;;;5049017;28;20055;-61
2022/08/26 09:55:32;;;;;;;7.90;1.47;;;;;;;;;;5048418;28;20044;-61
2022/08/26 09:57:58;;;;;;;8.87;1.80;;;;;;;;;;5030940;28;20048;-61
2022/08/26 10:00:28;;;;;;;9.73;1.67;;;;;;;;;;5048308;28;20052;-61
2022/08/26 10:02:54;;;;;;;6.10;1.50;;;;;;;;;;5048201;28;20154;-61
2022/08/26 10:05:47;;;;;;;7.20;1.97;;;;;;;;;;5048736;28;20128;-61
2022/08/26 10:08:21;;;;;;;9.35;1.67;;;;;;;;;;5048428;28;20505;-61
2022/08/26 10:10:47;;;;;;;8.52;1.60;;;;;;;;;;5048276;28;20065;-61
2022/08/26 10:13:17;;;;;;;7.43;1.30;;;;;;;;;;5049084;28;20057;-61
2022/08/26 10:16:03;;;;;;;7.90;1.50;;;;;;;;;;5048574;28;20045;-61
2022/08/26 10:18:38;;;;;;;7.50;1.30;;;;;;;;;;5046666;28;20044;-61
2022/08/26 10:21:10;;;;;;;10.23;2.08;;;;;;;;;;5049072;28;20098;-61
2022/08/26 10:23:38;;;;;;;6.00;1.52;;;;;;;;;;5049308;28;20095;-61
2022/08/26 10:26:19;;;;;;;6.18;1.85;;;;;;;;;;5048899;28;20114;-61
2022/08/26 10:28:52;;;;;;;8.38;1.60;;;;;;;;;;5047179;28;20108;-61
2022/08/26 10:31:25;;;;;;;9.77;1.85;;;;;;;;;;5041059;28;20056;-61
2022/08/26 10:33:51;;;;;;;5.25;1.88;;;;;;;;;;5048906;28;20529;-61
2022/08/26 10:39:04;;;;;;;9.40;1.80;;;;;;;;;;5048479;28;20049;-61
2022/08/26 10:41:35;;;;;;;5.90;1.40;;;;;;;;;;5048453;28;20045;-61
2022/08/26 10:44:02;;;;;;;6.40;1.58;;;;;;;;;;5048222;28;20048;-61
2022/08/26 10:46:34;;;;;;;4.70;1.48;;;;;;;;;;5048628;28;20041;-61
2022/08/26 10:49:09;;;;;;;7.75;1.52;;;;;;;;;;5048913;28;20052;-61
2022/08/26 10:51:40;;;;;;;6.38;1.75;;;;;;;;;;5047489;28;20051;-61
2022/08/26 10:54:25;;;;;;;5.78;1.45;;;;;;;;;;5048347;28;20053;-60
2022/08/26 10:57:08;;;;;;;6.15;1.30;;;;;;;;;;5047642;28;20761;-61
2022/08/26 10:59:39;;;;;;;5.13;1.52;;;;;;;;;;5048300;28;20076;-61
2022/08/26 11:02:10;;;;;;;8.68;2.08;;;;;;;;;;5048114;28;20552;-61
2022/08/26 11:04:39;;;;;;;12.95;2.03;;;;;;;;;;5048482;28;20041;-61
2022/08/26 11:07:41;;;;;;;10.00;1.33;;;;;;;;;;5048617;28;20081;-61
2022/08/26 11:10:07;;;;;;;5.10;1.40;;;;;;;;;;5045913;28;20041;-61
2022/08/26 11:12:35;;;;;;;10.52;2.03;;;;;;;;;;5047108;28;20055;-60
2022/08/26 11:15:07;;;;;;;7.07;1.30;;;;;;;;;;5048425;28;20048;-60
2022/08/26 11:17:45;;;;;;;8.00;1.30;;;;;;;;;;5048250;28;20045;-61
2022/08/26 11:20:17;;;;;;;6.38;1.70;;;;;;;;;;5048241;28;20041;-61
2022/08/26 11:22:43;;;;;;;8.38;1.90;;;;;;;;;;5047426;28;20049;-61
2022/08/26 11:25:10;;;;;;;9.23;1.80;;;;;;;;;;5047846;28;20511;-60
2022/08/26 11:27:36;;;;;;;7.00;1.70;;;;;;;;;;5047194;28;20178;-61
2022/08/26 11:30:02;;;;;;;9.40;1.47;;;;;;;;;;5047958;28;20140;-61
2022/08/26 11:32:35;;;;;;;6.10;1.70;;;;;;;;;;5047234;28;20461;-61
2022/08/26 11:35:04;;;;;;;10.20;2.27;;;;;;;;;;5048518;28;20060;-61
2022/08/26 11:37:50;;;;;;;7.70;1.73;;;;;;;;;;5047856;28;20045;-60
2022/08/26 11:40:30;;;;;;;7.90;1.37;;;;;;;;;;5048312;28;20091;-61
2022/08/26 11:42:59;;;;;;;7.83;1.40;;;;;;;;;;5050807;28;20098;-60
2022/08/26 11:45:51;;;;;;;7.17;1.17;;;;;;;;;;5049953;28;20037;-61
2022/08/26 11:48:17;;;;;;;10.47;2.67;;;;;;;;;;5047747;28;20491;-61
2022/08/26 11:50:53;;;;;;;8.87;1.73;;;;;;;;;;5049824;28;20047;-61
2022/08/26 11:53:19;;;;;;;5.27;1.50;;;;;;;;;;5049899;28;20083;-61
2022/08/26 11:55:45;;;;;;;5.53;1.57;;;;;;;;;;5049979;28;20045;-61
2022/08/26 11:58:12;;;;;;;7.77;1.77;;;;;;;;;;5050111;28;20904;-61
2022/08/26 12:00:48;;;;;;;8.87;1.67;;;;;;;;;;5051036;28;20052;-61
2022/08/26 12:03:20;;;;;;;7.97;1.50;;;;;;;;;;5051678;28;20044;-61
2022/08/26 12:05:48;;;;;;;5.00;1.23;;;;;;;;;;5051038;28;20426;-61
2022/08/26 12:08:16;;;;;;;5.37;1.30;;;;;;;;;;5051110;28;20080;-61
2022/08/26 12:10:43;;;;;;;6.33;1.20;;;;;;;;;;5051547;28;20087;-61
2022/08/26 12:13:17;;;;;;;3.40;1.43;;;;;;;;;;5050444;28;20398;-61
2022/08/26 12:15:50;;;;;;;6.00;1.77;;;;;;;;;;5050930;28;20073;-61
2022/08/26 12:18:18;;;;;;;4.50;1.00;;;;;;;;;;5050961;28;20124;-61
2022/08/26 12:20:47;;;;;;;5.07;1.70;;;;;;;;;;5051264;28;20037;-61
2022/08/26 12:23:45;;;;;;;6.97;1.37;;;;;;;;;;5050590;28;20132;-61
2022/08/26 12:26:23;;;;;;;9.27;1.97;;;;;;;;;;5048664;28;20507;-61
2022/08/26 12:29:09;;;;;;;5.87;1.30;;;;;;;;;;5050867;28;20049;-61
2022/08/26 12:31:38;;;;;;;5.07;1.07;;;;;;;;;;5050313;28;20382;-61
2022/08/26 12:34:06;;;;;;;7.03;1.20;;;;;;;;;;5050514;28;20171;-61
2022/08/26 12:36:42;;;;;;;10.30;1.10;;;;;;;;;;5050785;28;20816;-61
2022/08/26 12:39:08;;;;;;;5.73;1.60;;;;;;;;;;5050821;28;20053;-61
2022/08/26 12:41:54;;;;;;;5.37;1.53;;;;;;;;;;5050229;28;20037;-60
2022/08/26 12:44:39;;;;;;;6.03;1.40;;;;;;;;;;5050617;28;20052;-61
2022/08/26 12:47:10;;;;;;;5.03;1.43;;;;;;;;;;5050205;28;20749;-61
2022/08/26 12:49:38;;;;;;;5.80;1.20;;;;;;;;;;5050231;28;20041;-61
2022/08/26 12:52:04;;;;;;;4.25;1.15;;;;;;;;;;5050039;28;20052;-61
2022/08/26 12:57:15;;;;;;;6.10;1.08;;;;;;;;;;5050207;28;20049;-61
2022/08/26 12:59:41;;;;;;;3.65;0.95;;;;;;;;;;5049979;28;20510;-61
2022/08/26 13:02:07;;;;;;;4.25;0.98;;;;;;;;;;5050434;28;20069;-61
2022/08/26 13:04:36;;;;;;;5.63;1.10;;;;;;;;;;5050242;28;20422;-61
2022/08/26 13:07:20;;;;;;;3.92;1.10;;;;;;;;;;5050346;28;20048;-61
2022/08/26 13:09:47;;;;;;;5.47;1.20;;;;;;;;;;5050489;28;20053;-61
2022/08/26 13:12:22;;;;;;;3.63;1.08;;;;;;;;;;5048698;28;20080;-60
2022/08/26 13:14:49;;;;;;;6.78;1.40;;;;;;;;;;5049874;28;20487;-61
2022/08/26 13:17:15;;;;;;;4.60;1.17;;;;;;;;;;5050024;28;20044;-61
2022/08/26 13:19:42;;;;;;;4.15;1.15;;;;;;;;;;5050442;28;20056;-61
2022/08/26 13:22:11;;;;;;;4.00;0.77;;;;;;;;;;5050115;28;20045;-61
2022/08/26 13:24:39;;;;;;;5.25;1.08;;;;;;;;;;5049126;28;20140;-61
2022/08/26 13:27:06;;;;;;;5.00;1.17;;;;;;;;;;5049339;28;20055;-61
2022/08/26 13:29:32;;;;;;;4.68;0.95;;;;;;;;;;5049654;28;20474;-61
2022/08/26 13:31:58;;;;;;;4.55;1.15;;;;;;;;;;5049800;28;20055;-61
2022/08/26 13:34:25;;;;;;;5.28;1.30;;;;;;;;;;5049721;28;20045;-61
2022/08/26 13:36:52;;;;;;;5.18;1.40;;;;;;;;;;5049103;28;20132;-61
2022/08/26 13:39:19;;;;;;;5.28;1.25;;;;;;;;;;5049693;28;20056;-61
2022/08/26 13:41:45;;;;;;;3.47;0.85;;;;;;;;;;5048223;28;20045;-61
2022/08/26 13:44:12;;;;;;;2.63;0.90;;;;;;;;;;5049084;28;20520;-61
2022/08/26 13:46:38;;;;;;;3.75;1.05;;;;;;;;;;5049279;28;20048;-61
2022/08/26 13:49:05;;;;;;;4.05;1.00;;;;;;;;;;5049454;28;20057;-61
2022/08/26 13:51:31;;;;;;;4.70;1.20;;;;;;;;;;5047671;28;20045;-61
2022/08/26 13:53:57;;;;;;;6.30;1.02;;;;;;;;;;5047828;28;20513;-61
2022/08/26 13:56:26;;;;;;;2.78;0.98;;;;;;;;;;5047904;28;20076;-61
2022/08/26 13:58:52;;;;;;;4.07;0.82;;;;;;;;;;5048165;28;20080;-61
2022/08/26 14:01:18;;;;;;;3.60;1.00;;;;;;;;;;5049378;28;20087;-61
2022/08/26 14:03:45;;;;;;;3.58;1.05;;;;;;;;;;5048368;28;20056;-61
2022/08/26 14:06:11;;;;;;;4.45;1.10;;;;;;;;;;5049257;28;20494;-61
2022/08/26 14:08:37;;;;;;;3.38;1.08;;;;;;;;;;5049032;28;20405;-61
2022/08/26 14:11:03;;;;;;;6.00;1.52;;;;;;;;;;5049548;28;20040;-61
2022/08/26 14:13:29;;;;;;;6.32;1.00;;;;;;;;;;5048485;28;20045;-61
2022/08/26 14:15:58;;;;;;;4.80;1.23;;;;;;;;;;5048552;28;20041;-61
2022/08/26 14:18:28;;;;;;;6.80;1.08;;;;;;;;;;5048827;28;20044;-61
2022/08/26 14:20:54;;;;;;;7.50;1.30;;;;;;;;;;5048326;28;20123;-61
2022/08/26 14:23:21;;;;;;;5.40;1.35;;;;;;;;;;5048998;28;20423;-61
2022/08/26 14:25:47;;;;;;;8.23;1.40;;;;;;;;;;5049059;28;20057;-61
2022/08/26 14:28:13;;;;;;;6.00;1.25;;;;;;;;;;5048692;28;20064;-61
2022/08/26 14:30:43;;;;;;;7.18;1.25;;;;;;;;;;5048577;28;20511;-61
2022/08/26 14:33:14;;;;;;;7.40;2.05;;;;;;;;;;5048036;28;20173;-61
2022/08/26 14:35:40;;;;;;;6.10;1.67;;;;;;;;;;5048622;28;20049;-61
2022/08/26 14:38:06;;;;;;;7.13;1.50;;;;;;;;;;5049090;28;20041;-60
2022/08/26 14:40:32;;;;;;;9.10;1.67;;;;;;;;;;5048727;28;20466;-61
2022/08/26 14:42:59;;;;;;;5.83;1.53;;;;;;;;;;5048394;28;20041;-61
2022/08/26 14:45:26;;;;;;;8.87;1.80;;;;;;;;;;5048154;28;20055;-60
2022/08/26 14:47:55;;;;;;;4.10;1.07;;;;;;;;;;5048818;28;20071;-61
2022/08/26 14:50:22;;;;;;;7.80;1.30;;;;;;;;;;5048533;28;20102;-61